sensor_id;sensor_type;location;lat;lon;timestamp;P1;durP1;ratioP1;P2;durP2;ratioP2
28447;SDS011;15675;52.870;-1.416;2022-08-19T00:00:02;1.65;;;1.15;;
28447;SDS011;15675;52.870;-1.416;2022-08-19T00:02:30;1.60;;;0.98;;
28447;SDS011;15675;52.870;-1.416;2022-08-19T00:04:56;2.55;;;1.08;;
28447;SDS011;15675;52.870;-1.416;2022-08-19T00:07:22;1.70;;;1.00;;
28447;SDS011;15675;52.870;-1.416;2022-08-19T00:09:47;1.63;;;1.00;;
28447;SDS011;15675;52.870;-1.416;2022-08-19T00:12:13;3.50;;;1.17;;
28447;SDS011;15675;52.870;-1.416;2022-08-19T00:14:39;5.80;;;0.95;;
28447;SDS011;15675;52.870;-1.416;2022-08-19T00:17:06;2.80;;;1.27;;
28447;SDS011;15675;52.870;-1.416;2022-08-19T00:19:32;2.25;;;1.10;;
28447;SDS011;15675;52.870;-1.416;2022-08-19T00:21:58;3.33;;;1.10;;
28447;SDS011;15675;52.870;-1.416;2022-08-19T00:24:24;2.45;;;1.27;;
28447;SDS011;15675;52.870;-1.416;2022-08-19T00:26:51;3.67;;;1.13;;
28447;SDS011;15675;52.870;-1.416;2022-08-19T00:29:18;2.60;;;1.58;;
28447;SDS011;15675;52.870;-1.416;2022-08-19T00:31:46;7.60;;;1.40;;
28447;SDS011;15675;52.870;-1.416;2022-08-19T00:34:12;3.28;;;1.20;;
28447;SDS011;15675;52.870;-1.416;2022-08-19T00:36:39;3.13;;;1.60;;
28447;SDS011;15675;52.870;-1.416;2022-08-19T00:39:05;2.85;;;1.55;;
28447;SDS011;15675;52.870;-1.416;2022-08-19T00:41:31;6.30;;;1.95;;
28447;SDS011;15675;52.870;-1.416;2022-08-19T00:46:45;4.07;;;1.53;;
28447;SDS011;15675;52.870;-1.416;2022-08-19T00:49:17;3.20;;;1.70;;
28447;SDS011;15675;52.870;-1.416;2022-08-19T00:51:51;2.13;;;1.63;;
28447;SDS011;15675;52.870;-1.416;2022-08-19T00:54:22;2.67;;;1.40;;
28447;SDS011;15675;52.870;-1.416;2022-08-19T00:56:48;3.97;;;1.50;;
28447;SDS011;15675;52.870;-1.416;2022-08-19T00:59:15;3.78;;;1.58;;
28447;SDS011;15675;52.870;-1.416;2022-08-19T01:01:43;6.15;;;1.60;;
28447;SDS011;15675;52.870;-1.416;2022-08-19T01:04:11;2.95;;;1.55;;
28447;SDS011;15675;52.870;-1.416;2022-08-19T01:06:37;3.25;;;1.67;;
28447;SDS011;15675;52.870;-1.416;2022-08-19T01:09:06;2.03;;;1.20;;
28447;SDS011;15675;52.870;-1.416;2022-08-19T01:11:33;2.17;;;1.50;;
28447;SDS011;15675;52.870;-1.416;2022-08-19T01:14:01;2.53;;;1.73;;
28447;SDS011;15675;52.870;-1.416;2022-08-19T01:16:28;3.55;;;1.60;;
28447;SDS011;15675;52.870;-1.416;2022-08-19T01:18:55;4.18;;;1.75;;
28447;SDS011;15675;52.870;-1.416;2022-08-19T01:21:24;4.20;;;1.70;;
28447;SDS011;15675;52.870;-1.416;2022-08-19T01:23:51;3.38;;;1.50;;
28447;SDS011;15675;52.870;-1.416;2022-08-19T01:26:19;3.50;;;1.33;;
28447;SDS011;15675;52.870;-1.416;2022-08-19T01:28:47;4.13;;;1.70;;
28447;SDS011;15675;52.870;-1.416;2022-08-19T01:31:16;4.93;;;1.50;;
28447;SDS011;15675;52.870;-1.416;2022-08-19T01:33:44;5.38;;;1.58;;
28447;SDS011;15675;52.870;-1.416;2022-08-19T01:36:16;4.38;;;1.50;;
28447;SDS011;15675;52.870;-1.416;2022-08-19T01:38:48;2.95;;;1.73;;
28447;SDS011;15675;52.870;-1.416;2022-08-19T01:41:14;5.30;;;1.60;;
28447;SDS011;15675;52.870;-1.416;2022-08-19T01:43:43;2.75;;;1.60;;
28447;SDS011;15675;52.870;-1.416;2022-08-19T01:46:09;6.35;;;1.83;;
28447;SDS011;15675;52.870;-1.416;2022-08-19T01:48:36;4.70;;;1.65;;
28447;SDS011;15675;52.870;-1.416;2022-08-19T01:51:03;3.22;;;1.67;;
28447;SDS011;15675;52.870;-1.416;2022-08-19T01:53:29;3.15;;;1.38;;
28447;SDS011;15675;52.870;-1.416;2022-08-19T01:55:56;5.20;;;2.13;;
28447;SDS011;15675;52.870;-1.416;2022-08-19T01:58:22;4.63;;;1.77;;
28447;SDS011;15675;52.870;-1.416;2022-08-19T02:00:54;2.42;;;1.42;;
28447;SDS011;15675;52.870;-1.416;2022-08-19T02:03:20;3.65;;;1.50;;
28447;SDS011;15675;52.870;-1.416;2022-08-19T02:05:45;5.50;;;1.85;;
28447;SDS011;15675;52.870;-1.416;2022-08-19T02:08:11;5.63;;;1.90;;
28447;SDS011;15675;52.870;-1.416;2022-08-19T02:10:41;4.38;;;2.33;;
28447;SDS011;15675;52.870;-1.416;2022-08-19T02:13:09;3.50;;;2.28;;
28447;SDS011;15675;52.870;-1.416;2022-08-19T02:15:36;5.93;;;1.70;;
28447;SDS011;15675;52.870;-1.416;2022-08-19T02:18:02;6.03;;;1.88;;
28447;SDS011;15675;52.870;-1.416;2022-08-19T02:20:28;3.65;;;1.67;;
28447;SDS011;15675;52.870;-1.416;2022-08-19T02:22:54;5.05;;;1.70;;
28447;SDS011;15675;52.870;-1.416;2022-08-19T02:25:19;10.15;;;2.38;;
28447;SDS011;15675;52.870;-1.416;2022-08-19T02:27:45;11.77;;;2.45;;
28447;SDS011;15675;52.870;-1.416;2022-08-19T02:30:12;5.80;;;1.88;;
28447;SDS011;15675;52.870;-1.416;2022-08-19T02:32:40;13.30;;;2.40;;
28447;SDS011;15675;52.870;-1.416;2022-08-19T02:35:07;7.25;;;1.95;;
28447;SDS011;15675;52.870;-1.416;2022-08-19T02:37:33;12.02;;;2.15;;
28447;SDS011;15675;52.870;-1.416;2022-08-19T02:40:18;9.07;;;2.08;;
28447;SDS011;15675;52.870;-1.416;2022-08-19T02:42:44;10.38;;;2.15;;
28447;SDS011;15675;52.870;-1.416;2022-08-19T02:45:11;10.45;;;2.15;;
28447;SDS011;15675;52.870;-1.416;2022-08-19T02:47:38;10.88;;;2.30;;
28447;SDS011;15675;52.870;-1.416;2022-08-19T02:50:04;10.63;;;1.90;;
28447;SDS011;15675;52.870;-1.416;2022-08-19T02:52:31;13.23;;;2.45;;
28447;SDS011;15675;52.870;-1.416;2022-08-19T02:54:58;8.45;;;2.30;;
28447;SDS011;15675;52.870;-1.416;2022-08-19T02:57:25;11.80;;;2.38;;
28447;SDS011;15675;52.870;-1.416;2022-08-19T02:59:51;14.05;;;2.45;;
28447;SDS011;15675;52.870;-1.416;2022-08-19T03:02:18;12.23;;;2.05;;
28447;SDS011;15675;52.870;-1.416;2022-08-19T03:04:44;8.02;;;1.80;;
28447;SDS011;15675;52.870;-1.416;2022-08-19T03:07:12;11.50;;;2.20;;
28447;SDS011;15675;52.870;-1.416;2022-08-19T03:09:38;8.57;;;2.10;;
28447;SDS011;15675;52.870;-1.416;2022-08-19T03:12:04;10.27;;;2.33;;
28447;SDS011;15675;52.870;-1.416;2022-08-19T03:14:31;13.30;;;2.42;;
28447;SDS011;15675;52.870;-1.416;2022-08-19T03:16:57;14.27;;;2.25;;
28447;SDS011;15675;52.870;-1.416;2022-08-19T03:19:23;10.70;;;2.90;;
28447;SDS011;15675;52.870;-1.416;2022-08-19T03:21:49;9.57;;;2.70;;
28447;SDS011;15675;52.870;-1.416;2022-08-19T03:24:18;11.43;;;2.45;;
28447;SDS011;15675;52.870;-1.416;2022-08-19T03:26:46;19.67;;;2.67;;
28447;SDS011;15675;52.870;-1.416;2022-08-19T03:29:14;13.20;;;2.00;;
28447;SDS011;15675;52.870;-1.416;2022-08-19T03:31:43;9.73;;;2.83;;
28447;SDS011;15675;52.870;-1.416;2022-08-19T03:34:13;19.55;;;2.53;;
28447;SDS011;15675;52.870;-1.416;2022-08-19T03:36:54;12.60;;;2.13;;
28447;SDS011;15675;52.870;-1.416;2022-08-19T03:39:21;17.67;;;2.17;;
28447;SDS011;15675;52.870;-1.416;2022-08-19T03:41:49;12.32;;;2.13;;
28447;SDS011;15675;52.870;-1.416;2022-08-19T03:44:17;11.32;;;2.35;;
28447;SDS011;15675;52.870;-1.416;2022-08-19T03:46:46;12.35;;;2.00;;
28447;SDS011;15675;52.870;-1.416;2022-08-19T03:49:15;11.70;;;2.30;;
28447;SDS011;15675;52.870;-1.416;2022-08-19T03:51:41;11.98;;;2.10;;
28447;SDS011;15675;52.870;-1.416;2022-08-19T03:54:09;13.60;;;2.65;;
28447;SDS011;15675;52.870;-1.416;2022-08-19T03:56:37;15.55;;;2.40;;
28447;SDS011;15675;52.870;-1.416;2022-08-19T03:59:05;11.88;;;2.33;;
28447;SDS011;15675;52.870;-1.416;2022-08-19T04:01:32;13.13;;;2.25;;
28447;SDS011;15675;52.870;-1.416;2022-08-19T04:04:00;12.45;;;2.10;;
28447;SDS011;15675;52.870;-1.416;2022-08-19T04:06:27;7.55;;;2.20;;
28447;SDS011;15675;52.870;-1.416;2022-08-19T04:08:55;15.30;;;2.50;;
28447;SDS011;15675;52.870;-1.416;2022-08-19T04:11:24;14.35;;;2.33;;
28447;SDS011;15675;52.870;-1.416;2022-08-19T04:13:52;15.13;;;3.08;;
28447;SDS011;15675;52.870;-1.416;2022-08-19T04:16:19;14.25;;;2.38;;
28447;SDS011;15675;52.870;-1.416;2022-08-19T04:18:49;17.85;;;2.72;;
28447;SDS011;15675;52.870;-1.416;2022-08-19T04:21:16;14.70;;;2.88;;
28447;SDS011;15675;52.870;-1.416;2022-08-19T04:23:45;13.38;;;2.55;;
28447;SDS011;15675;52.870;-1.416;2022-08-19T04:26:15;16.58;;;2.85;;
28447;SDS011;15675;52.870;-1.416;2022-08-19T04:28:46;16.25;;;2.45;;
28447;SDS011;15675;52.870;-1.416;2022-08-19T04:31:14;18.35;;;2.75;;
28447;SDS011;15675;52.870;-1.416;2022-08-19T04:33:44;12.88;;;2.03;;
28447;SDS011;15675;52.870;-1.416;2022-08-19T04:36:44;16.77;;;2.58;;
28447;SDS011;15675;52.870;-1.416;2022-08-19T04:39:07;11.15;;;2.42;;
28447;SDS011;15675;52.870;-1.416;2022-08-19T04:41:35;11.35;;;2.35;;
28447;SDS011;15675;52.870;-1.416;2022-08-19T04:44:19;11.50;;;2.88;;
28447;SDS011;15675;52.870;-1.416;2022-08-19T04:46:45;15.10;;;2.97;;
28447;SDS011;15675;52.870;-1.416;2022-08-19T04:49:13;14.40;;;2.97;;
28447;SDS011;15675;52.870;-1.416;2022-08-19T04:51:42;15.98;;;2.47;;
28447;SDS011;15675;52.870;-1.416;2022-08-19T04:54:09;10.52;;;2.92;;
28447;SDS011;15675;52.870;-1.416;2022-08-19T04:56:36;17.00;;;2.65;;
28447;SDS011;15675;52.870;-1.416;2022-08-19T04:59:02;16.60;;;2.65;;
28447;SDS011;15675;52.870;-1.416;2022-08-19T05:01:31;18.40;;;3.00;;
28447;SDS011;15675;52.870;-1.416;2022-08-19T05:04:02;10.27;;;2.65;;
28447;SDS011;15675;52.870;-1.416;2022-08-19T05:06:30;16.65;;;2.20;;
28447;SDS011;15675;52.870;-1.416;2022-08-19T05:08:58;11.73;;;2.42;;
28447;SDS011;15675;52.870;-1.416;2022-08-19T05:11:25;10.88;;;2.38;;
28447;SDS011;15675;52.870;-1.416;2022-08-19T05:13:53;11.20;;;2.13;;
28447;SDS011;15675;52.870;-1.416;2022-08-19T05:16:20;14.63;;;2.60;;
28447;SDS011;15675;52.870;-1.416;2022-08-19T05:18:48;14.40;;;2.72;;
28447;SDS011;15675;52.870;-1.416;2022-08-19T05:21:33;14.27;;;2.95;;
28447;SDS011;15675;52.870;-1.416;2022-08-19T05:24:17;18.63;;;2.28;;
28447;SDS011;15675;52.870;-1.416;2022-08-19T05:26:45;15.27;;;2.72;;
28447;SDS011;15675;52.870;-1.416;2022-08-19T05:29:14;13.13;;;2.50;;
28447;SDS011;15675;52.870;-1.416;2022-08-19T05:31:41;15.75;;;2.90;;
28447;SDS011;15675;52.870;-1.416;2022-08-19T05:34:07;16.70;;;2.42;;
28447;SDS011;15675;52.870;-1.416;2022-08-19T05:36:39;17.60;;;2.75;;
28447;SDS011;15675;52.870;-1.416;2022-08-19T05:39:09;13.50;;;3.08;;
28447;SDS011;15675;52.870;-1.416;2022-08-19T05:41:41;20.33;;;2.88;;
28447;SDS011;15675;52.870;-1.416;2022-08-19T05:44:11;11.13;;;2.13;;
28447;SDS011;15675;52.870;-1.416;2022-08-19T05:46:38;11.93;;;2.47;;
28447;SDS011;15675;52.870;-1.416;2022-08-19T05:49:06;13.50;;;2.60;;
28447;SDS011;15675;52.870;-1.416;2022-08-19T05:51:33;18.67;;;2.83;;
28447;SDS011;15675;52.870;-1.416;2022-08-19T05:54:00;16.27;;;2.70;;
28447;SDS011;15675;52.870;-1.416;2022-08-19T05:56:27;13.52;;;3.03;;
28447;SDS011;15675;52.870;-1.416;2022-08-19T05:58:55;16.05;;;2.88;;
28447;SDS011;15675;52.870;-1.416;2022-08-19T06:01:21;10.02;;;2.83;;
28447;SDS011;15675;52.870;-1.416;2022-08-19T06:03:47;12.52;;;2.58;;
28447;SDS011;15675;52.870;-1.416;2022-08-19T06:06:13;24.10;;;3.33;;
28447;SDS011;15675;52.870;-1.416;2022-08-19T06:08:40;14.73;;;2.67;;
28447;SDS011;15675;52.870;-1.416;2022-08-19T06:11:15;14.48;;;3.03;;
28447;SDS011;15675;52.870;-1.416;2022-08-19T06:13:46;18.40;;;3.05;;
28447;SDS011;15675;52.870;-1.416;2022-08-19T06:16:14;17.80;;;3.10;;
28447;SDS011;15675;52.870;-1.416;2022-08-19T06:18:59;14.05;;;2.85;;
28447;SDS011;15675;52.870;-1.416;2022-08-19T06:21:27;14.63;;;3.15;;
28447;SDS011;15675;52.870;-1.416;2022-08-19T06:23:54;12.23;;;3.00;;
28447;SDS011;15675;52.870;-1.416;2022-08-19T06:26:22;16.90;;;2.90;;
28447;SDS011;15675;52.870;-1.416;2022-08-19T06:28:49;13.55;;;2.88;;
28447;SDS011;15675;52.870;-1.416;2022-08-19T06:31:19;12.82;;;2.55;;
28447;SDS011;15675;52.870;-1.416;2022-08-19T06:33:47;11.57;;;2.30;;
28447;SDS011;15675;52.870;-1.416;2022-08-19T06:36:19;14.45;;;3.50;;
28447;SDS011;15675;52.870;-1.416;2022-08-19T06:38:56;14.00;;;2.60;;
28447;SDS011;15675;52.870;-1.416;2022-08-19T06:41:24;12.40;;;2.63;;
28447;SDS011;15675;52.870;-1.416;2022-08-19T06:43:51;9.98;;;2.45;;
28447;SDS011;15675;52.870;-1.416;2022-08-19T06:46:17;18.33;;;2.83;;
28447;SDS011;15675;52.870;-1.416;2022-08-19T06:48:45;13.02;;;2.28;;
28447;SDS011;15675;52.870;-1.416;2022-08-19T06:51:15;14.18;;;3.05;;
28447;SDS011;15675;52.870;-1.416;2022-08-19T06:53:46;12.38;;;2.60;;
28447;SDS011;15675;52.870;-1.416;2022-08-19T06:56:16;9.27;;;2.55;;
28447;SDS011;15675;52.870;-1.416;2022-08-19T06:58:44;8.63;;;2.53;;
28447;SDS011;15675;52.870;-1.416;2022-08-19T07:01:11;16.05;;;2.92;;
28447;SDS011;15675;52.870;-1.416;2022-08-19T07:03:38;19.10;;;2.70;;
28447;SDS011;15675;52.870;-1.416;2022-08-19T07:06:08;15.45;;;2.08;;
28447;SDS011;15675;52.870;-1.416;2022-08-19T07:08:37;8.73;;;2.17;;
28447;SDS011;15675;52.870;-1.416;2022-08-19T07:11:08;14.05;;;2.05;;
28447;SDS011;15675;52.870;-1.416;2022-08-19T07:13:36;15.82;;;2.50;;
28447;SDS011;15675;52.870;-1.416;2022-08-19T07:16:04;15.70;;;3.75;;
28447;SDS011;15675;52.870;-1.416;2022-08-19T07:18:30;18.25;;;3.25;;
28447;SDS011;15675;52.870;-1.416;2022-08-19T07:21:08;11.85;;;1.95;;
28447;SDS011;15675;52.870;-1.416;2022-08-19T07:23:36;8.98;;;2.05;;
28447;SDS011;15675;52.870;-1.416;2022-08-19T07:26:08;13.00;;;2.60;;
28447;SDS011;15675;52.870;-1.416;2022-08-19T07:28:41;15.10;;;2.30;;
28447;SDS011;15675;52.870;-1.416;2022-08-19T07:31:12;21.17;;;2.95;;
28447;SDS011;15675;52.870;-1.416;2022-08-19T07:33:40;9.88;;;2.30;;
28447;SDS011;15675;52.870;-1.416;2022-08-19T07:36:08;18.60;;;2.50;;
28447;SDS011;15675;52.870;-1.416;2022-08-19T07:38:36;16.77;;;2.75;;
28447;SDS011;15675;52.870;-1.416;2022-08-19T07:41:04;20.23;;;2.90;;
28447;SDS011;15675;52.870;-1.416;2022-08-19T07:43:30;14.45;;;2.60;;
28447;SDS011;15675;52.870;-1.416;2022-08-19T07:45:57;9.38;;;2.13;;
28447;SDS011;15675;52.870;-1.416;2022-08-19T07:48:23;15.20;;;2.10;;
28447;SDS011;15675;52.870;-1.416;2022-08-19T07:50:53;13.25;;;2.35;;
28447;SDS011;15675;52.870;-1.416;2022-08-19T07:53:27;11.10;;;2.15;;
28447;SDS011;15675;52.870;-1.416;2022-08-19T07:55:54;12.93;;;2.65;;
28447;SDS011;15675;52.870;-1.416;2022-08-19T07:58:21;14.07;;;2.53;;
28447;SDS011;15675;52.870;-1.416;2022-08-19T08:00:48;11.93;;;2.42;;
28447;SDS011;15675;52.870;-1.416;2022-08-19T08:03:16;20.02;;;3.08;;
28447;SDS011;15675;52.870;-1.416;2022-08-19T08:05:45;12.82;;;2.80;;
28447;SDS011;15675;52.870;-1.416;2022-08-19T08:08:30;11.05;;;2.05;;
28447;SDS011;15675;52.870;-1.416;2022-08-19T08:10:56;13.35;;;2.30;;
28447;SDS011;15675;52.870;-1.416;2022-08-19T08:13:23;16.55;;;1.95;;
28447;SDS011;15675;52.870;-1.416;2022-08-19T08:15:49;8.60;;;2.10;;
28447;SDS011;15675;52.870;-1.416;2022-08-19T08:18:15;15.52;;;2.30;;
28447;SDS011;15675;52.870;-1.416;2022-08-19T08:20:41;12.85;;;1.85;;
28447;SDS011;15675;52.870;-1.416;2022-08-19T08:23:07;10.52;;;2.50;;
28447;SDS011;15675;52.870;-1.416;2022-08-19T08:25:52;14.43;;;3.10;;
28447;SDS011;15675;52.870;-1.416;2022-08-19T08:28:19;14.07;;;2.20;;
28447;SDS011;15675;52.870;-1.416;2022-08-19T08:30:45;11.82;;;2.50;;
28447;SDS011;15675;52.870;-1.416;2022-08-19T08:33:13;14.48;;;2.03;;
28447;SDS011;15675;52.870;-1.416;2022-08-19T08:35:43;11.93;;;2.63;;
28447;SDS011;15675;52.870;-1.416;2022-08-19T08:38:10;9.60;;;1.88;;
28447;SDS011;15675;52.870;-1.416;2022-08-19T08:43:40;12.52;;;2.30;;
28447;SDS011;15675;52.870;-1.416;2022-08-19T08:46:12;8.45;;;2.22;;
28447;SDS011;15675;52.870;-1.416;2022-08-19T08:51:18;11.93;;;2.10;;
28447;SDS011;15675;52.870;-1.416;2022-08-19T08:53:53;17.08;;;2.53;;
28447;SDS011;15675;52.870;-1.416;2022-08-19T08:56:21;9.15;;;1.65;;
28447;SDS011;15675;52.870;-1.416;2022-08-19T08:58:54;12.43;;;1.92;;
28447;SDS011;15675;52.870;-1.416;2022-08-19T09:01:27;14.40;;;3.78;;
28447;SDS011;15675;52.870;-1.416;2022-08-19T09:03:53;11.98;;;2.78;;
28447;SDS011;15675;52.870;-1.416;2022-08-19T09:09:11;12.73;;;2.03;;
28447;SDS011;15675;52.870;-1.416;2022-08-19T09:17:09;6.93;;;1.60;;
28447;SDS011;15675;52.870;-1.416;2022-08-19T09:19:35;9.90;;;1.98;;
28447;SDS011;15675;52.870;-1.416;2022-08-19T09:22:12;11.05;;;2.30;;
28447;SDS011;15675;52.870;-1.416;2022-08-19T09:24:38;7.78;;;2.05;;
28447;SDS011;15675;52.870;-1.416;2022-08-19T09:27:04;8.90;;;2.15;;
28447;SDS011;15675;52.870;-1.416;2022-08-19T09:29:30;9.77;;;1.92;;
28447;SDS011;15675;52.870;-1.416;2022-08-19T09:31:56;9.68;;;2.13;;
28447;SDS011;15675;52.870;-1.416;2022-08-19T09:34:21;16.35;;;2.10;;
28447;SDS011;15675;52.870;-1.416;2022-08-19T09:36:48;12.45;;;2.10;;
28447;SDS011;15675;52.870;-1.416;2022-08-19T09:39:18;14.43;;;2.53;;
28447;SDS011;15675;52.870;-1.416;2022-08-19T09:41:44;16.75;;;2.17;;
28447;SDS011;15675;52.870;-1.416;2022-08-19T09:44:09;12.98;;;1.92;;
28447;SDS011;15675;52.870;-1.416;2022-08-19T09:46:37;7.53;;;1.83;;
28447;SDS011;15675;52.870;-1.416;2022-08-19T09:49:02;7.65;;;1.80;;
28447;SDS011;15675;52.870;-1.416;2022-08-19T09:51:31;10.80;;;1.67;;
28447;SDS011;15675;52.870;-1.416;2022-08-19T09:53:59;9.60;;;2.05;;
28447;SDS011;15675;52.870;-1.416;2022-08-19T09:56:27;13.05;;;2.13;;
28447;SDS011;15675;52.870;-1.416;2022-08-19T09:58:54;9.40;;;2.10;;
28447;SDS011;15675;52.870;-1.416;2022-08-19T10:01:24;10.68;;;2.67;;
28447;SDS011;15675;52.870;-1.416;2022-08-19T10:03:52;8.70;;;1.88;;
28447;SDS011;15675;52.870;-1.416;2022-08-19T10:06:21;8.70;;;2.20;;
28447;SDS011;15675;52.870;-1.416;2022-08-19T10:08:49;11.18;;;2.00;;
28447;SDS011;15675;52.870;-1.416;2022-08-19T10:11:17;9.60;;;2.08;;
28447;SDS011;15675;52.870;-1.416;2022-08-19T10:13:45;9.57;;;1.50;;
28447;SDS011;15675;52.870;-1.416;2022-08-19T10:16:14;12.80;;;2.42;;
28447;SDS011;15675;52.870;-1.416;2022-08-19T10:18:41;7.45;;;1.80;;
28447;SDS011;15675;52.870;-1.416;2022-08-19T10:21:13;9.48;;;2.13;;
28447;SDS011;15675;52.870;-1.416;2022-08-19T10:23:42;7.80;;;1.73;;
28447;SDS011;15675;52.870;-1.416;2022-08-19T10:26:11;9.20;;;1.83;;
28447;SDS011;15675;52.870;-1.416;2022-08-19T10:28:42;8.95;;;1.63;;
28447;SDS011;15675;52.870;-1.416;2022-08-19T10:31:13;9.93;;;2.17;;
28447;SDS011;15675;52.870;-1.416;2022-08-19T10:33:45;14.63;;;2.17;;
28447;SDS011;15675;52.870;-1.416;2022-08-19T10:36:19;9.55;;;1.80;;
28447;SDS011;15675;52.870;-1.416;2022-08-19T10:38:48;10.63;;;2.00;;
28447;SDS011;15675;52.870;-1.416;2022-08-19T10:41:17;6.65;;;1.40;;
28447;SDS011;15675;52.870;-1.416;2022-08-19T10:43:45;9.95;;;1.48;;
28447;SDS011;15675;52.870;-1.416;2022-08-19T10:46:12;10.10;;;1.83;;
28447;SDS011;15675;52.870;-1.416;2022-08-19T10:48:40;4.93;;;1.55;;
28447;SDS011;15675;52.870;-1.416;2022-08-19T10:51:06;13.43;;;1.92;;
28447;SDS011;15675;52.870;-1.416;2022-08-19T10:53:51;10.40;;;1.65;;
28447;SDS011;15675;52.870;-1.416;2022-08-19T10:56:17;12.77;;;2.00;;
28447;SDS011;15675;52.870;-1.416;2022-08-19T10:59:02;12.48;;;2.13;;
28447;SDS011;15675;52.870;-1.416;2022-08-19T11:01:29;13.13;;;2.10;;
28447;SDS011;15675;52.870;-1.416;2022-08-19T11:03:59;9.27;;;1.58;;
28447;SDS011;15675;52.870;-1.416;2022-08-19T11:06:25;10.75;;;2.10;;
28447;SDS011;15675;52.870;-1.416;2022-08-19T11:08:53;6.78;;;1.80;;
28447;SDS011;15675;52.870;-1.416;2022-08-19T11:11:20;13.15;;;1.80;;
28447;SDS011;15675;52.870;-1.416;2022-08-19T11:13:47;9.00;;;2.10;;
28447;SDS011;15675;52.870;-1.416;2022-08-19T11:16:23;10.32;;;1.70;;
28447;SDS011;15675;52.870;-1.416;2022-08-19T11:18:53;7.22;;;1.58;;
28447;SDS011;15675;52.870;-1.416;2022-08-19T11:21:30;7.47;;;1.25;;
28447;SDS011;15675;52.870;-1.416;2022-08-19T11:23:59;11.55;;;1.98;;
28447;SDS011;15675;52.870;-1.416;2022-08-19T11:26:28;9.98;;;1.92;;
28447;SDS011;15675;52.870;-1.416;2022-08-19T11:28:56;13.68;;;1.83;;
28447;SDS011;15675;52.870;-1.416;2022-08-19T11:31:24;9.05;;;1.35;;
28447;SDS011;15675;52.870;-1.416;2022-08-19T11:33:59;10.15;;;1.75;;
28447;SDS011;15675;52.870;-1.416;2022-08-19T11:36:26;12.40;;;1.60;;
28447;SDS011;15675;52.870;-1.416;2022-08-19T11:38:53;6.03;;;1.38;;
28447;SDS011;15675;52.870;-1.416;2022-08-19T11:41:20;7.18;;;1.77;;
28447;SDS011;15675;52.870;-1.416;2022-08-19T11:43:48;9.43;;;2.25;;
28447;SDS011;15675;52.870;-1.416;2022-08-19T11:46:15;8.55;;;1.38;;
28447;SDS011;15675;52.870;-1.416;2022-08-19T11:48:42;5.57;;;1.50;;
28447;SDS011;15675;52.870;-1.416;2022-08-19T11:51:13;9.65;;;1.67;;
28447;SDS011;15675;52.870;-1.416;2022-08-19T11:53:41;5.88;;;1.42;;
28447;SDS011;15675;52.870;-1.416;2022-08-19T11:56:08;6.85;;;1.55;;
28447;SDS011;15675;52.870;-1.416;2022-08-19T11:58:34;9.00;;;1.40;;
28447;SDS011;15675;52.870;-1.416;2022-08-19T12:01:00;7.88;;;1.42;;
28447;SDS011;15675;52.870;-1.416;2022-08-19T12:03:30;10.25;;;1.90;;
28447;SDS011;15675;52.870;-1.416;2022-08-19T12:05:55;6.22;;;1.38;;
28447;SDS011;15675;52.870;-1.416;2022-08-19T12:08:22;6.05;;;1.48;;
28447;SDS011;15675;52.870;-1.416;2022-08-19T12:10:47;5.53;;;1.20;;
28447;SDS011;15675;52.870;-1.416;2022-08-19T12:13:13;6.47;;;1.38;;
28447;SDS011;15675;52.870;-1.416;2022-08-19T12:15:45;6.40;;;0.90;;
28447;SDS011;15675;52.870;-1.416;2022-08-19T12:18:12;7.90;;;1.30;;
28447;SDS011;15675;52.870;-1.416;2022-08-19T12:20:41;4.70;;;1.20;;
28447;SDS011;15675;52.870;-1.416;2022-08-19T12:23:08;8.88;;;1.08;;
28447;SDS011;15675;52.870;-1.416;2022-08-19T12:25:36;11.25;;;1.50;;
28447;SDS011;15675;52.870;-1.416;2022-08-19T12:30:33;9.23;;;1.42;;
28447;SDS011;15675;52.870;-1.416;2022-08-19T12:33:02;8.15;;;1.00;;
28447;SDS011;15675;52.870;-1.416;2022-08-19T12:35:28;5.85;;;0.93;;
28447;SDS011;15675;52.870;-1.416;2022-08-19T12:37:55;8.00;;;1.30;;
28447;SDS011;15675;52.870;-1.416;2022-08-19T12:40:21;7.18;;;1.40;;
28447;SDS011;15675;52.870;-1.416;2022-08-19T12:42:46;6.55;;;1.20;;
28447;SDS011;15675;52.870;-1.416;2022-08-19T12:45:15;5.32;;;1.35;;
28447;SDS011;15675;52.870;-1.416;2022-08-19T12:47:40;5.43;;;1.25;;
28447;SDS011;15675;52.870;-1.416;2022-08-19T12:50:06;4.25;;;0.95;;
28447;SDS011;15675;52.870;-1.416;2022-08-19T12:52:34;4.88;;;1.40;;
28447;SDS011;15675;52.870;-1.416;2022-08-19T12:55:03;7.47;;;1.30;;
28447;SDS011;15675;52.870;-1.416;2022-08-19T12:57:31;7.07;;;1.10;;
28447;SDS011;15675;52.870;-1.416;2022-08-19T13:00:00;7.30;;;0.93;;
28447;SDS011;15675;52.870;-1.416;2022-08-19T13:02:27;3.25;;;0.90;;
28447;SDS011;15675;52.870;-1.416;2022-08-19T13:04:52;5.03;;;0.70;;
28447;SDS011;15675;52.870;-1.416;2022-08-19T13:07:18;3.72;;;0.70;;
28447;SDS011;15675;52.870;-1.416;2022-08-19T13:09:44;7.88;;;1.30;;
28447;SDS011;15675;52.870;-1.416;2022-08-19T13:12:10;6.50;;;0.70;;
28447;SDS011;15675;52.870;-1.416;2022-08-19T13:14:38;5.63;;;0.80;;
28447;SDS011;15675;52.870;-1.416;2022-08-19T13:17:06;6.63;;;1.00;;
28447;SDS011;15675;52.870;-1.416;2022-08-19T13:19:32;4.15;;;0.80;;
28447;SDS011;15675;52.870;-1.416;2022-08-19T13:21:57;4.10;;;0.60;;
28447;SDS011;15675;52.870;-1.416;2022-08-19T13:24:24;4.97;;;0.90;;
28447;SDS011;15675;52.870;-1.416;2022-08-19T13:26:50;4.75;;;0.80;;
28447;SDS011;15675;52.870;-1.416;2022-08-19T13:29:15;8.95;;;0.77;;
28447;SDS011;15675;52.870;-1.416;2022-08-19T13:31:59;4.20;;;0.80;;
28447;SDS011;15675;52.870;-1.416;2022-08-19T13:34:44;4.75;;;0.60;;
28447;SDS011;15675;52.870;-1.416;2022-08-19T13:37:11;4.55;;;0.90;;
28447;SDS011;15675;52.870;-1.416;2022-08-19T13:39:37;6.72;;;1.08;;
28447;SDS011;15675;52.870;-1.416;2022-08-19T13:42:03;6.00;;;0.85;;
28447;SDS011;15675;52.870;-1.416;2022-08-19T13:44:31;2.83;;;0.60;;
28447;SDS011;15675;52.870;-1.416;2022-08-19T13:47:04;2.70;;;0.73;;
28447;SDS011;15675;52.870;-1.416;2022-08-19T13:49:31;6.05;;;0.88;;
28447;SDS011;15675;52.870;-1.416;2022-08-19T13:51:58;5.80;;;0.98;;
28447;SDS011;15675;52.870;-1.416;2022-08-19T13:54:23;4.75;;;0.73;;
28447;SDS011;15675;52.870;-1.416;2022-08-19T13:56:49;4.88;;;0.80;;
28447;SDS011;15675;52.870;-1.416;2022-08-19T13:59:15;3.88;;;0.80;;
28447;SDS011;15675;52.870;-1.416;2022-08-19T14:01:41;2.85;;;0.70;;
28447;SDS011;15675;52.870;-1.416;2022-08-19T14:04:07;3.08;;;0.50;;
28447;SDS011;15675;52.870;-1.416;2022-08-19T14:06:33;5.15;;;0.73;;
28447;SDS011;15675;52.870;-1.416;2022-08-19T14:09:00;3.63;;;0.77;;
28447;SDS011;15675;52.870;-1.416;2022-08-19T14:11:27;5.65;;;0.68;;
28447;SDS011;15675;52.870;-1.416;2022-08-19T14:13:53;2.28;;;0.70;;
28447;SDS011;15675;52.870;-1.416;2022-08-19T14:16:19;2.88;;;0.65;;
28447;SDS011;15675;52.870;-1.416;2022-08-19T14:18:46;3.67;;;0.70;;
28447;SDS011;15675;52.870;-1.416;2022-08-19T14:21:16;4.38;;;0.77;;
28447;SDS011;15675;52.870;-1.416;2022-08-19T14:26:12;3.15;;;0.73;;
28447;SDS011;15675;52.870;-1.416;2022-08-19T14:28:40;5.88;;;1.08;;
28447;SDS011;15675;52.870;-1.416;2022-08-19T14:31:11;2.85;;;0.60;;
28447;SDS011;15675;52.870;-1.416;2022-08-19T14:33:38;4.75;;;0.80;;
28447;SDS011;15675;52.870;-1.416;2022-08-19T14:36:04;6.07;;;0.80;;
28447;SDS011;15675;52.870;-1.416;2022-08-19T14:38:31;4.05;;;1.00;;
28447;SDS011;15675;52.870;-1.416;2022-08-19T14:41:07;3.63;;;0.80;;
28447;SDS011;15675;52.870;-1.416;2022-08-19T14:43:34;6.30;;;1.00;;
28447;SDS011;15675;52.870;-1.416;2022-08-19T14:45:59;4.25;;;0.82;;
28447;SDS011;15675;52.870;-1.416;2022-08-19T14:48:25;6.95;;;1.00;;
28447;SDS011;15675;52.870;-1.416;2022-08-19T14:50:51;5.38;;;0.77;;
28447;SDS011;15675;52.870;-1.416;2022-08-19T14:53:17;5.82;;;1.20;;
28447;SDS011;15675;52.870;-1.416;2022-08-19T14:55:43;3.25;;;0.90;;